sensor_id;sensor_type;location;lat;lon;timestamp;temperature;humidity
20158;DHT22;10239;56.820;24.416;2023-10-13T00:02:02;9.50;99.90
20158;DHT22;10239;56.820;24.416;2023-10-13T00:04:33;9.50;99.90
20158;DHT22;10239;56.820;24.416;2023-10-13T00:07:04;9.50;99.90
20158;DHT22;10239;56.820;24.416;2023-10-13T00:09:36;9.50;99.90
20158;DHT22;10239;56.820;24.416;2023-10-13T00:12:08;9.40;99.90
20158;DHT22;10239;56.820;24.416;2023-10-13T00:14:42;9.40;99.90
20158;DHT22;10239;56.820;24.416;2023-10-13T00:17:13;9.40;99.90
20158;DHT22;10239;56.820;24.416;2023-10-13T00:19:48;9.40;99.90
20158;DHT22;10239;56.820;24.416;2023-10-13T00:22:20;9.40;99.90
20158;DHT22;10239;56.820;24.416;2023-10-13T00:24:50;9.40;99.90
20158;DHT22;10239;56.820;24.416;2023-10-13T00:27:20;9.40;99.90
20158;DHT22;10239;56.820;24.416;2023-10-13T00:30:04;9.30;99.90
20158;DHT22;10239;56.820;24.416;2023-10-13T00:32:55;9.30;99.90
20158;DHT22;10239;56.820;24.416;2023-10-13T00:35:29;9.30;99.90
20158;DHT22;10239;56.820;24.416;2023-10-13T00:38:04;9.30;99.90
20158;DHT22;10239;56.820;24.416;2023-10-13T00:40:41;9.30;99.90
20158;DHT22;10239;56.820;24.416;2023-10-13T00:43:10;9.20;99.90
20158;DHT22;10239;56.820;24.416;2023-10-13T00:48:29;9.20;99.90
20158;DHT22;10239;56.820;24.416;2023-10-13T00:51:04;9.20;99.90
20158;DHT22;10239;56.820;24.416;2023-10-13T00:53:36;9.20;99.90
20158;DHT22;10239;56.820;24.416;2023-10-13T00:56:12;9.20;99.90
20158;DHT22;10239;56.820;24.416;2023-10-13T00:58:51;9.10;99.90
20158;DHT22;10239;56.820;24.416;2023-10-13T01:01:20;9.10;99.90
20158;DHT22;10239;56.820;24.416;2023-10-13T01:03:58;9.10;99.90
20158;DHT22;10239;56.820;24.416;2023-10-13T01:06:36;9.10;99.90
20158;DHT22;10239;56.820;24.416;2023-10-13T01:09:07;9.10;99.90
20158;DHT22;10239;56.820;24.416;2023-10-13T01:11:51;9.10;99.90
20158;DHT22;10239;56.820;24.416;2023-10-13T01:14:22;9.10;99.90
20158;DHT22;10239;56.820;24.416;2023-10-13T01:16:55;9.10;99.90
20158;DHT22;10239;56.820;24.416;2023-10-13T01:19:26;9.10;99.90
20158;DHT22;10239;56.820;24.416;2023-10-13T01:21:55;9.00;99.90
20158;DHT22;10239;56.820;24.416;2023-10-13T01:24:31;9.00;99.90
20158;DHT22;10239;56.820;24.416;2023-10-13T01:27:06;9.00;99.90
20158;DHT22;10239;56.820;24.416;2023-10-13T01:29:48;9.00;99.90
20158;DHT22;10239;56.820;24.416;2023-10-13T01:32:22;8.90;99.90
20158;DHT22;10239;56.820;24.416;2023-10-13T01:34:50;8.90;99.90
20158;DHT22;10239;56.820;24.416;2023-10-13T01:37:23;8.90;99.90
20158;DHT22;10239;56.820;24.416;2023-10-13T01:39:50;8.90;99.90
20158;DHT22;10239;56.820;24.416;2023-10-13T01:42:19;8.90;99.90
20158;DHT22;10239;56.820;24.416;2023-10-13T01:44:51;8.90;99.90
20158;DHT22;10239;56.820;24.416;2023-10-13T01:47:18;8.80;99.90
20158;DHT22;10239;56.820;24.416;2023-10-13T01:49:50;8.80;99.90
20158;DHT22;10239;56.820;24.416;2023-10-13T01:52:18;8.80;99.90
20158;DHT22;10239;56.820;24.416;2023-10-13T01:54:47;8.80;99.90
20158;DHT22;10239;56.820;24.416;2023-10-13T01:57:17;8.80;99.90
20158;DHT22;10239;56.820;24.416;2023-10-13T01:59:49;8.70;99.90
20158;DHT22;10239;56.820;24.416;2023-10-13T02:02:17;8.70;99.90
20158;DHT22;10239;56.820;24.416;2023-10-13T02:05:06;8.70;99.90
20158;DHT22;10239;56.820;24.416;2023-10-13T02:07:34;8.60;99.90
20158;DHT22;10239;56.820;24.416;2023-10-13T02:10:06;8.60;99.90
20158;DHT22;10239;56.820;24.416;2023-10-13T02:12:34;8.60;99.90
20158;DHT22;10239;56.820;24.416;2023-10-13T02:15:12;8.60;99.90
20158;DHT22;10239;56.820;24.416;2023-10-13T02:17:49;8.60;99.90
20158;DHT22;10239;56.820;24.416;2023-10-13T02:20:20;8.50;99.90
20158;DHT22;10239;56.820;24.416;2023-10-13T02:22:52;8.50;99.90
20158;DHT22;10239;56.820;24.416;2023-10-13T02:25:20;8.50;99.90
20158;DHT22;10239;56.820;24.416;2023-10-13T02:28:05;8.50;99.90
20158;DHT22;10239;56.820;24.416;2023-10-13T02:30:43;8.40;99.90
20158;DHT22;10239;56.820;24.416;2023-10-13T02:33:17;8.40;99.90
20158;DHT22;10239;56.820;24.416;2023-10-13T02:35:57;8.40;99.90
20158;DHT22;10239;56.820;24.416;2023-10-13T02:38:25;8.40;99.90
20158;DHT22;10239;56.820;24.416;2023-10-13T02:41:02;8.40;99.90
20158;DHT22;10239;56.820;24.416;2023-10-13T02:43:36;8.50;99.90
20158;DHT22;10239;56.820;24.416;2023-10-13T02:46:04;8.40;99.90
20158;DHT22;10239;56.820;24.416;2023-10-13T02:48:32;8.40;99.90
20158;DHT22;10239;56.820;24.416;2023-10-13T02:51:24;8.40;99.90
20158;DHT22;10239;56.820;24.416;2023-10-13T02:54:04;8.30;99.90
20158;DHT22;10239;56.820;24.416;2023-10-13T02:56:52;8.30;99.90
20158;DHT22;10239;56.820;24.416;2023-10-13T02:59:32;8.20;99.90
20158;DHT22;10239;56.820;24.416;2023-10-13T03:02:16;8.20;99.90
20158;DHT22;10239;56.820;24.416;2023-10-13T03:04:57;8.20;99.90
20158;DHT22;10239;56.820;24.416;2023-10-13T03:07:27;8.20;99.90
20158;DHT22;10239;56.820;24.416;2023-10-13T03:09:59;8.10;99.90
20158;DHT22;10239;56.820;24.416;2023-10-13T03:12:38;8.10;99.90
20158;DHT22;10239;56.820;24.416;2023-10-13T03:15:06;8.10;99.90
20158;DHT22;10239;56.820;24.416;2023-10-13T03:17:44;8.10;99.90
20158;DHT22;10239;56.820;24.416;2023-10-13T03:20:15;8.10;99.90
20158;DHT22;10239;56.820;24.416;2023-10-13T03:22:43;8.10;99.90
20158;DHT22;10239;56.820;24.416;2023-10-13T03:25:14;8.00;99.90
20158;DHT22;10239;56.820;24.416;2023-10-13T03:27:51;8.00;99.90
20158;DHT22;10239;56.820;24.416;2023-10-13T03:30:20;7.90;99.90
20158;DHT22;10239;56.820;24.416;2023-10-13T03:32:48;7.90;99.90
20158;DHT22;10239;56.820;24.416;2023-10-13T03:35:21;7.90;99.90
20158;DHT22;10239;56.820;24.416;2023-10-13T03:37:52;7.90;99.90
20158;DHT22;10239;56.820;24.416;2023-10-13T03:40:21;7.90;99.90
20158;DHT22;10239;56.820;24.416;2023-10-13T03:42:51;7.80;99.90
20158;DHT22;10239;56.820;24.416;2023-10-13T03:45:41;7.80;99.90
20158;DHT22;10239;56.820;24.416;2023-10-13T03:48:16;7.90;99.90
20158;DHT22;10239;56.820;24.416;2023-10-13T03:50:58;7.80;99.90
20158;DHT22;10239;56.820;24.416;2023-10-13T03:53:39;7.80;99.90
20158;DHT22;10239;56.820;24.416;2023-10-13T03:56:24;7.80;99.90
20158;DHT22;10239;56.820;24.416;2023-10-13T03:59:00;7.80;99.90
20158;DHT22;10239;56.820;24.416;2023-10-13T04:01:33;7.80;99.90
20158;DHT22;10239;56.820;24.416;2023-10-13T04:04:17;7.80;99.90
20158;DHT22;10239;56.820;24.416;2023-10-13T04:07:17;7.90;99.90
20158;DHT22;10239;56.820;24.416;2023-10-13T04:10:07;7.80;99.90
20158;DHT22;10239;56.820;24.416;2023-10-13T04:12:54;7.80;99.90
20158;DHT22;10239;56.820;24.416;2023-10-13T04:15:43;7.90;99.90
20158;DHT22;10239;56.820;24.416;2023-10-13T04:18:32;7.90;99.90
20158;DHT22;10239;56.820;24.416;2023-10-13T04:21:18;7.90;99.90
20158;DHT22;10239;56.820;24.416;2023-10-13T04:24:12;7.90;99.90
20158;DHT22;10239;56.820;24.416;2023-10-13T04:26:48;7.90;99.90
20158;DHT22;10239;56.820;24.416;2023-10-13T04:29:37;7.80;99.90
20158;DHT22;10239;56.820;24.416;2023-10-13T04:32:38;7.80;99.90
20158;DHT22;10239;56.820;24.416;2023-10-13T04:35:06;7.80;99.90
20158;DHT22;10239;56.820;24.416;2023-10-13T04:37:40;7.80;99.90
20158;DHT22;10239;56.820;24.416;2023-10-13T04:40:26;7.70;99.90
20158;DHT22;10239;56.820;24.416;2023-10-13T04:43:02;7.80;99.90
20158;DHT22;10239;56.820;24.416;2023-10-13T04:45:59;7.80;99.90
20158;DHT22;10239;56.820;24.416;2023-10-13T04:48:42;7.80;99.90
20158;DHT22;10239;56.820;24.416;2023-10-13T04:51:14;7.80;99.90
20158;DHT22;10239;56.820;24.416;2023-10-13T04:54:01;7.70;99.90
20158;DHT22;10239;56.820;24.416;2023-10-13T04:56:37;7.70;99.90
20158;DHT22;10239;56.820;24.416;2023-10-13T04:59:27;7.70;99.90
20158;DHT22;10239;56.820;24.416;2023-10-13T05:02:14;7.80;99.90
20158;DHT22;10239;56.820;24.416;2023-10-13T05:05:12;7.80;99.90
20158;DHT22;10239;56.820;24.416;2023-10-13T05:07:46;7.80;99.90
20158;DHT22;10239;56.820;24.416;2023-10-13T05:10:35;7.80;99.90
20158;DHT22;10239;56.820;24.416;2023-10-13T05:13:22;7.90;99.90
20158;DHT22;10239;56.820;24.416;2023-10-13T05:16:09;7.90;99.90
20158;DHT22;10239;56.820;24.416;2023-10-13T05:18:56;8.00;99.90
20158;DHT22;10239;56.820;24.416;2023-10-13T05:21:43;8.10;99.90
20158;DHT22;10239;56.820;24.416;2023-10-13T05:24:32;8.20;99.90
20158;DHT22;10239;56.820;24.416;2023-10-13T05:27:20;8.20;99.90
20158;DHT22;10239;56.820;24.416;2023-10-13T05:30:25;8.30;99.90
20158;DHT22;10239;56.820;24.416;2023-10-13T05:33:13;8.40;99.90
20158;DHT22;10239;56.820;24.416;2023-10-13T05:36:00;8.50;99.90
20158;DHT22;10239;56.820;24.416;2023-10-13T05:38:46;8.60;99.90
20158;DHT22;10239;56.820;24.416;2023-10-13T05:41:35;8.70;99.90
20158;DHT22;10239;56.820;24.416;2023-10-13T05:44:23;8.90;99.90
20158;DHT22;10239;56.820;24.416;2023-10-13T05:47:22;9.00;99.90
20158;DHT22;10239;56.820;24.416;2023-10-13T05:50:10;9.30;99.90
20158;DHT22;10239;56.820;24.416;2023-10-13T05:52:50;9.80;99.90
20158;DHT22;10239;56.820;24.416;2023-10-13T05:55:31;10.20;99.90
20158;DHT22;10239;56.820;24.416;2023-10-13T05:58:19;10.50;99.90
20158;DHT22;10239;56.820;24.416;2023-10-13T06:01:06;11.20;99.90
20158;DHT22;10239;56.820;24.416;2023-10-13T06:03:53;12.10;99.90
20158;DHT22;10239;56.820;24.416;2023-10-13T06:06:41;12.60;99.90
20158;DHT22;10239;56.820;24.416;2023-10-13T06:09:29;12.70;99.90
20158;DHT22;10239;56.820;24.416;2023-10-13T06:12:17;12.90;99.90
20158;DHT22;10239;56.820;24.416;2023-10-13T06:15:04;13.40;99.90
20158;DHT22;10239;56.820;24.416;2023-10-13T06:17:51;14.80;99.90
20158;DHT22;10239;56.820;24.416;2023-10-13T06:20:41;15.30;99.90
20158;DHT22;10239;56.820;24.416;2023-10-13T06:23:29;14.90;99.90
20158;DHT22;10239;56.820;24.416;2023-10-13T06:26:17;15.00;99.90
20158;DHT22;10239;56.820;24.416;2023-10-13T06:29:06;15.70;99.90
20158;DHT22;10239;56.820;24.416;2023-10-13T06:31:36;15.90;99.90
20158;DHT22;10239;56.820;24.416;2023-10-13T06:34:07;17.10;99.90
20158;DHT22;10239;56.820;24.416;2023-10-13T06:36:37;18.20;99.90
20158;DHT22;10239;56.820;24.416;2023-10-13T06:39:08;19.00;99.90
20158;DHT22;10239;56.820;24.416;2023-10-13T06:41:56;19.60;99.90
20158;DHT22;10239;56.820;24.416;2023-10-13T06:44:28;19.70;99.90
20158;DHT22;10239;56.820;24.416;2023-10-13T06:47:02;20.40;99.90
20158;DHT22;10239;56.820;24.416;2023-10-13T06:49:33;20.40;99.90
20158;DHT22;10239;56.820;24.416;2023-10-13T06:52:06;20.60;99.90
20158;DHT22;10239;56.820;24.416;2023-10-13T06:54:37;20.70;99.90
20158;DHT22;10239;56.820;24.416;2023-10-13T06:57:09;20.40;99.90
20158;DHT22;10239;56.820;24.416;2023-10-13T06:59:59;20.90;99.90
20158;DHT22;10239;56.820;24.416;2023-10-13T07:02:36;21.00;99.90
20158;DHT22;10239;56.820;24.416;2023-10-13T07:05:04;20.70;99.90
20158;DHT22;10239;56.820;24.416;2023-10-13T07:07:40;20.50;99.90
20158;DHT22;10239;56.820;24.416;2023-10-13T07:10:10;20.50;99.90
20158;DHT22;10239;56.820;24.416;2023-10-13T07:12:39;20.50;99.90
20158;DHT22;10239;56.820;24.416;2023-10-13T07:15:17;20.90;99.90
20158;DHT22;10239;56.820;24.416;2023-10-13T07:17:46;21.40;99.90
20158;DHT22;10239;56.820;24.416;2023-10-13T07:20:16;21.70;99.90
20158;DHT22;10239;56.820;24.416;2023-10-13T07:22:56;21.60;99.90
20158;DHT22;10239;56.820;24.416;2023-10-13T07:25:39;22.00;99.90
20158;DHT22;10239;56.820;24.416;2023-10-13T07:28:08;22.30;99.90
20158;DHT22;10239;56.820;24.416;2023-10-13T07:30:38;22.60;99.90
20158;DHT22;10239;56.820;24.416;2023-10-13T07:33:22;22.80;99.90
20158;DHT22;10239;56.820;24.416;2023-10-13T07:36:01;23.20;99.90
20158;DHT22;10239;56.820;24.416;2023-10-13T07:38:39;23.60;99.90
20158;DHT22;10239;56.820;24.416;2023-10-13T07:41:10;23.40;99.90
20158;DHT22;10239;56.820;24.416;2023-10-13T07:43:43;23.90;99.90
20158;DHT22;10239;56.820;24.416;2023-10-13T07:46:16;23.70;99.90
20158;DHT22;10239;56.820;24.416;2023-10-13T07:48:44;23.60;99.90
20158;DHT22;10239;56.820;24.416;2023-10-13T07:51:13;24.00;99.90
20158;DHT22;10239;56.820;24.416;2023-10-13T07:53:44;24.10;99.90
20158;DHT22;10239;56.820;24.416;2023-10-13T07:56:13;24.70;99.90
20158;DHT22;10239;56.820;24.416;2023-10-13T07:58:42;24.90;99.90
20158;DHT22;10239;56.820;24.416;2023-10-13T08:01:32;24.50;99.90
20158;DHT22;10239;56.820;24.416;2023-10-13T08:04:02;24.10;99.90
20158;DHT22;10239;56.820;24.416;2023-10-13T08:06:39;24.40;99.90
20158;DHT22;10239;56.820;24.416;2023-10-13T08:09:12;24.90;99.90
20158;DHT22;10239;56.820;24.416;2023-10-13T08:12:07;25.00;99.90
20158;DHT22;10239;56.820;24.416;2023-10-13T08:14:39;25.00;99.90
20158;DHT22;10239;56.820;24.416;2023-10-13T08:17:09;24.80;99.90
20158;DHT22;10239;56.820;24.416;2023-10-13T08:19:38;24.10;99.90
20158;DHT22;10239;56.820;24.416;2023-10-13T08:22:13;24.00;99.90
20158;DHT22;10239;56.820;24.416;2023-10-13T08:24:51;24.30;99.90
20158;DHT22;10239;56.820;24.416;2023-10-13T08:27:21;24.10;99.90
20158;DHT22;10239;56.820;24.416;2023-10-13T08:30:02;24.50;99.90
20158;DHT22;10239;56.820;24.416;2023-10-13T08:32:51;24.80;99.90
20158;DHT22;10239;56.820;24.416;2023-10-13T08:35:23;25.10;99.90
20158;DHT22;10239;56.820;24.416;2023-10-13T08:38:02;25.40;99.90
20158;DHT22;10239;56.820;24.416;2023-10-13T08:41:00;25.30;99.90
20158;DHT22;10239;56.820;24.416;2023-10-13T08:43:43;25.30;99.90
20158;DHT22;10239;56.820;24.416;2023-10-13T08:46:20;25.10;99.90
20158;DHT22;10239;56.820;24.416;2023-10-13T08:49:20;25.30;99.90
20158;DHT22;10239;56.820;24.416;2023-10-13T08:51:52;24.40;99.90
20158;DHT22;10239;56.820;24.416;2023-10-13T08:54:44;23.20;99.90
20158;DHT22;10239;56.820;24.416;2023-10-13T08:57:31;23.50;99.90
20158;DHT22;10239;56.820;24.416;2023-10-13T09:00:02;23.10;99.90
20158;DHT22;10239;56.820;24.416;2023-10-13T09:02:49;23.60;99.90
20158;DHT22;10239;56.820;24.416;2023-10-13T09:05:35;24.20;99.90
20158;DHT22;10239;56.820;24.416;2023-10-13T09:08:10;23.40;99.90
20158;DHT22;10239;56.820;24.416;2023-10-13T09:10:43;23.20;99.90
20158;DHT22;10239;56.820;24.416;2023-10-13T09:13:37;22.90;99.90
20158;DHT22;10239;56.820;24.416;2023-10-13T09:16:12;22.60;99.90
20158;DHT22;10239;56.820;24.416;2023-10-13T09:18:49;22.70;99.90
20158;DHT22;10239;56.820;24.416;2023-10-13T09:21:20;23.00;99.90
20158;DHT22;10239;56.820;24.416;2023-10-13T09:23:57;23.40;99.90
20158;DHT22;10239;56.820;24.416;2023-10-13T09:26:44;23.70;99.90
20158;DHT22;10239;56.820;24.416;2023-10-13T09:29:19;23.80;99.90
20158;DHT22;10239;56.820;24.416;2023-10-13T09:32:03;23.80;99.90
20158;DHT22;10239;56.820;24.416;2023-10-13T09:34:32;23.40;99.90
20158;DHT22;10239;56.820;24.416;2023-10-13T09:37:03;22.90;99.90
20158;DHT22;10239;56.820;24.416;2023-10-13T09:39:32;22.10;99.90
20158;DHT22;10239;56.820;24.416;2023-10-13T09:42:24;21.50;99.90
20158;DHT22;10239;56.820;24.416;2023-10-13T09:44:53;21.40;99.90
20158;DHT22;10239;56.820;24.416;2023-10-13T09:47:28;21.50;99.90
20158;DHT22;10239;56.820;24.416;2023-10-13T09:50:07;21.50;99.90
20158;DHT22;10239;56.820;24.416;2023-10-13T09:52:43;21.30;99.90
20158;DHT22;10239;56.820;24.416;2023-10-13T09:55:15;20.90;99.90
20158;DHT22;10239;56.820;24.416;2023-10-13T09:57:53;20.60;99.90
20158;DHT22;10239;56.820;24.416;2023-10-13T10:00:28;20.40;99.90
20158;DHT22;10239;56.820;24.416;2023-10-13T10:03:10;20.30;99.90
20158;DHT22;10239;56.820;24.416;2023-10-13T10:06:01;19.90;99.90
20158;DHT22;10239;56.820;24.416;2023-10-13T10:08:44;19.50;99.90
20158;DHT22;10239;56.820;24.416;2023-10-13T10:17:24;20.00;99.90
20158;DHT22;10239;56.820;24.416;2023-10-13T10:19:57;19.60;99.90
20158;DHT22;10239;56.820;24.416;2023-10-13T10:22:28;19.40;99.90
20158;DHT22;10239;56.820;24.416;2023-10-13T10:25:15;19.00;99.90
20158;DHT22;10239;56.820;24.416;2023-10-13T10:27:59;19.30;99.90
20158;DHT22;10239;56.820;24.416;2023-10-13T10:30:28;19.40;99.90
20158;DHT22;10239;56.820;24.416;2023-10-13T10:32:57;18.90;99.90
20158;DHT22;10239;56.820;24.416;2023-10-13T10:35:28;18.80;99.90
20158;DHT22;10239;56.820;24.416;2023-10-13T10:38:08;18.70;99.90
20158;DHT22;10239;56.820;24.416;2023-10-13T10:40:53;19.30;99.90
20158;DHT22;10239;56.820;24.416;2023-10-13T10:43:29;19.30;99.90
20158;DHT22;10239;56.820;24.416;2023-10-13T10:46:13;19.50;99.90
20158;DHT22;10239;56.820;24.416;2023-10-13T10:48:45;19.30;99.90
20158;DHT22;10239;56.820;24.416;2023-10-13T10:51:15;19.30;99.90
20158;DHT22;10239;56.820;24.416;2023-10-13T10:53:51;19.20;99.90
20158;DHT22;10239;56.820;24.416;2023-10-13T10:56:24;18.90;99.90
20158;DHT22;10239;56.820;24.416;2023-10-13T10:59:13;18.50;99.90
20158;DHT22;10239;56.820;24.416;2023-10-13T11:01:47;18.20;99.90
20158;DHT22;10239;56.820;24.416;2023-10-13T11:04:15;18.00;99.90
20158;DHT22;10239;56.820;24.416;2023-10-13T11:06:56;18.00;99.90
20158;DHT22;10239;56.820;24.416;2023-10-13T11:09:26;18.10;99.90
20158;DHT22;10239;56.820;24.416;2023-10-13T11:11:54;18.60;99.90
20158;DHT22;10239;56.820;24.416;2023-10-13T11:14:27;18.70;99.90
20158;DHT22;10239;56.820;24.416;2023-10-13T11:16:59;18.50;99.90
20158;DHT22;10239;56.820;24.416;2023-10-13T11:19:42;18.10;99.90
20158;DHT22;10239;56.820;24.416;2023-10-13T11:22:14;18.20;99.90
20158;DHT22;10239;56.820;24.416;2023-10-13T11:25:05;17.90;99.90
20158;DHT22;10239;56.820;24.416;2023-10-13T11:27:40;17.20;99.90
20158;DHT22;10239;56.820;24.416;2023-10-13T11:30:24;17.00;99.90
20158;DHT22;10239;56.820;24.416;2023-10-13T11:35:27;17.20;99.90
20158;DHT22;10239;56.820;24.416;2023-10-13T11:38:20;17.30;99.90
20158;DHT22;10239;56.820;24.416;2023-10-13T11:41:04;17.30;99.90
20158;DHT22;10239;56.820;24.416;2023-10-13T11:43:50;16.60;99.90
20158;DHT22;10239;56.820;24.416;2023-10-13T11:46:26;16.50;99.90
20158;DHT22;10239;56.820;24.416;2023-10-13T11:49:13;16.80;99.90
20158;DHT22;10239;56.820;24.416;2023-10-13T11:51:42;16.90;99.90
20158;DHT22;10239;56.820;24.416;2023-10-13T11:54:20;17.00;99.90
20158;DHT22;10239;56.820;24.416;2023-10-13T11:56:50;17.00;99.90
20158;DHT22;10239;56.820;24.416;2023-10-13T11:59:19;16.80;99.90
20158;DHT22;10239;56.820;24.416;2023-10-13T12:01:48;16.80;99.90
20158;DHT22;10239;56.820;24.416;2023-10-13T12:04:36;16.60;99.90
20158;DHT22;10239;56.820;24.416;2023-10-13T12:07:20;16.60;99.90
20158;DHT22;10239;56.820;24.416;2023-10-13T12:09:52;16.50;99.90
20158;DHT22;10239;56.820;24.416;2023-10-13T12:12:26;16.60;99.90
20158;DHT22;10239;56.820;24.416;2023-10-13T12:14:55;16.70;99.90
20158;DHT22;10239;56.820;24.416;2023-10-13T12:17:28;17.00;99.90
20158;DHT22;10239;56.820;24.416;2023-10-13T12:20:03;17.00;99.90
20158;DHT22;10239;56.820;24.416;2023-10-13T12:22:46;16.90;99.90
20158;DHT22;10239;56.820;24.416;2023-10-13T12:25:22;17.10;99.90
20158;DHT22;10239;56.820;24.416;2023-10-13T12:28:02;16.70;99.90
20158;DHT22;10239;56.820;24.416;2023-10-13T12:30:50;16.50;99.90
20158;DHT22;10239;56.820;24.416;2023-10-13T12:33:21;16.40;99.90
20158;DHT22;10239;56.820;24.416;2023-10-13T12:36:01;16.50;99.90
20158;DHT22;10239;56.820;24.416;2023-10-13T12:38:41;16.30;99.90
20158;DHT22;10239;56.820;24.416;2023-10-13T12:41:15;16.40;99.90
20158;DHT22;10239;56.820;24.416;2023-10-13T12:44:03;16.20;99.90
20158;DHT22;10239;56.820;24.416;2023-10-13T12:46:51;16.50;99.90
20158;DHT22;10239;56.820;24.416;2023-10-13T12:49:39;16.40;99.90
20158;DHT22;10239;56.820;24.416;2023-10-13T12:52:12;16.40;99.90
20158;DHT22;10239;56.820;24.416;2023-10-13T12:55:17;16.40;99.90
20158;DHT22;10239;56.820;24.416;2023-10-13T12:57:48;16.40;99.90
20158;DHT22;10239;56.820;24.416;2023-10-13T13:00:16;16.50;99.90
20158;DHT22;10239;56.820;24.416;2023-10-13T13:02:47;16.60;99.90
20158;DHT22;10239;56.820;24.416;2023-10-13T13:05:15;16.50;99.90
20158;DHT22;10239;56.820;24.416;2023-10-13T13:07:43;16.50;99.90
20158;DHT22;10239;56.820;24.416;2023-10-13T13:10:15;16.40;99.90
20158;DHT22;10239;56.820;24.416;2023-10-13T13:12:43;16.50;99.90
20158;DHT22;10239;56.820;24.416;2023-10-13T13:15:12;16.20;99.90
20158;DHT22;10239;56.820;24.416;2023-10-13T13:17:41;16.10;99.90
20158;DHT22;10239;56.820;24.416;2023-10-13T13:20:09;16.00;99.90
20158;DHT22;10239;56.820;24.416;2023-10-13T13:22:53;15.90;99.90
20158;DHT22;10239;56.820;24.416;2023-10-13T13:25:30;15.90;99.90
20158;DHT22;10239;56.820;24.416;2023-10-13T13:27:58;15.80;99.90
20158;DHT22;10239;56.820;24.416;2023-10-13T13:30:32;15.50;99.90
20158;DHT22;10239;56.820;24.416;2023-10-13T13:33:05;15.60;99.90
20158;DHT22;10239;56.820;24.416;2023-10-13T13:35:41;15.50;99.90
20158;DHT22;10239;56.820;24.416;2023-10-13T13:38:12;15.40;99.90
20158;DHT22;10239;56.820;24.416;2023-10-13T13:40:56;15.30;99.90
20158;DHT22;10239;56.820;24.416;2023-10-13T13:43:24;15.30;99.90
20158;DHT22;10239;56.820;24.416;2023-10-13T13:46:11;15.30;99.90
20158;DHT22;10239;56.820;24.416;2023-10-13T13:48:39;15.30;99.90
20158;DHT22;10239;56.820;24.416;2023-10-13T13:51:09;15.20;99.90
20158;DHT22;10239;56.820;24.416;2023-10-13T13:53:43;15.20;99.90
20158;DHT22;10239;56.820;24.416;2023-10-13T13:56:15;15.10;99.90
20158;DHT22;10239;56.820;24.416;2023-10-13T13:58:48;15.20;99.90
20158;DHT22;10239;56.820;24.416;2023-10-13T14:01:19;15.20;99.90
20158;DHT22;10239;56.820;24.416;2023-10-13T14:03:53;15.00;99.90
20158;DHT22;10239;56.820;24.416;2023-10-13T14:06:24;14.90;99.90
20158;DHT22;10239;56.820;24.416;2023-10-13T14:08:56;15.00;99.90
20158;DHT22;10239;56.820;24.416;2023-10-13T14:11:29;14.80;99.90
20158;DHT22;10239;56.820;24.416;2023-10-13T14:14:16;14.90;99.90
20158;DHT22;10239;56.820;24.416;2023-10-13T14:17:01;14.70;99.90
20158;DHT22;10239;56.820;24.416;2023-10-13T14:19:36;14.40;99.90
20158;DHT22;10239;56.820;24.416;2023-10-13T14:22:08;14.30;99.90
20158;DHT22;10239;56.820;24.416;2023-10-13T14:24:40;14.20;99.90
20158;DHT22;10239;56.820;24.416;2023-10-13T14:27:13;14.20;99.90
20158;DHT22;10239;56.820;24.416;2023-10-13T14:30:02;14.10;99.90
20158;DHT22;10239;56.820;24.416;2023-10-13T14:32:30;13.90;99.90
20158;DHT22;10239;56.820;24.416;2023-10-13T14:34:58;13.70;99.90
20158;DHT22;10239;56.820;24.416;2023-10-13T14:37:28;13.50;99.90
20158;DHT22;10239;56.820;24.416;2023-10-13T14:39:59;13.30;99.90
20158;DHT22;10239;56.820;24.416;2023-10-13T14:42:28;13.10;99.90
20158;DHT22;10239;56.820;24.416;2023-10-13T14:44:56;13.20;99.90
20158;DHT22;10239;56.820;24.416;2023-10-13T14:47:24;13.30;99.90
20158;DHT22;10239;56.820;24.416;2023-10-13T14:49:56;13.10;99.90
20158;DHT22;10239;56.820;24.416;2023-10-13T14:52:27;12.90;99.90
20158;DHT22;10239;56.820;24.416;2023-10-13T14:54:59;12.70;99.90
20158;DHT22;10239;56.820;24.416;2023-10-13T14:57:27;12.70;99.90
20158;DHT22;10239;56.820;24.416;2023-10-13T14:59:55;12.60;99.90
20158;DHT22;10239;56.820;24.416;2023-10-13T15:02:23;12.60;99.90
20158;DHT22;10239;56.820;24.416;2023-10-13T15:04:50;12.50;99.90
20158;DHT22;10239;56.820;24.416;2023-10-13T15:07:18;12.50;99.90
20158;DHT22;10239;56.820;24.416;2023-10-13T15:09:47;12.50;99.90
20158;DHT22;10239;56.820;24.416;2023-10-13T15:12:15;12.30;99.90
20158;DHT22;10239;56.820;24.416;2023-10-13T15:14:50;12.40;99.90
20158;DHT22;10239;56.820;24.416;2023-10-13T15:17:20;12.30;99.90
20158;DHT22;10239;56.820;24.416;2023-10-13T15:19:51;12.40;99.90
20158;DHT22;10239;56.820;24.416;2023-10-13T15:22:19;12.20;99.90
20158;DHT22;10239;56.820;24.416;2023-10-13T15:24:54;12.10;99.90
20158;DHT22;10239;56.820;24.416;2023-10-13T15:27:37;12.00;99.90
20158;DHT22;10239;56.820;24.416;2023-10-13T15:30:10;11.90;99.90
20158;DHT22;10239;56.820;24.416;2023-10-13T15:32:47;11.90;99.90
20158;DHT22;10239;56.820;24.416;2023-10-13T15:35:17;11.90;99.90
20158;DHT22;10239;56.820;24.416;2023-10-13T15:37:44;11.80;99.90
20158;DHT22;10239;56.820;24.416;2023-10-13T15:40:16;11.70;99.90
20158;DHT22;10239;56.820;24.416;2023-10-13T15:42:44;11.70;99.90
20158;DHT22;10239;56.820;24.416;2023-10-13T15:45:13;11.40;99.90
20158;DHT22;10239;56.820;24.416;2023-10-13T15:47:48;11.50;99.90
20158;DHT22;10239;56.820;24.416;2023-10-13T15:50:18;11.40;99.90
20158;DHT22;10239;56.820;24.416;2023-10-13T15:52:49;11.40;99.90
20158;DHT22;10239;56.820;24.416;2023-10-13T15:55:17;11.30;99.90
20158;DHT22;10239;56.820;24.416;2023-10-13T15:57:45;11.30;99.90
20158;DHT22;10239;56.820;24.416;2023-10-13T16:00:20;11.20;99.90
20158;DHT22;10239;56.820;24.416;2023-10-13T16:02:56;11.10;99.90
20158;DHT22;10239;56.820;24.416;2023-10-13T16:05:32;11.10;99.90
20158;DHT22;10239;56.820;24.416;2023-10-13T16:08:04;11.20;99.90
20158;DHT22;10239;56.820;24.416;2023-10-13T16:10:33;11.20;99.90
20158;DHT22;10239;56.820;24.416;2023-10-13T16:13:03;11.20;99.90
20158;DHT22;10239;56.820;24.416;2023-10-13T16:15:35;11.00;99.90
20158;DHT22;10239;56.820;24.416;2023-10-13T16:18:09;11.20;99.90
20158;DHT22;10239;56.820;24.416;2023-10-13T16:20:37;11.20;99.90
20158;DHT22;10239;56.820;24.416;2023-10-13T16:23:06;11.00;99.90
20158;DHT22;10239;56.820;24.416;2023-10-13T16:25:35;11.20;99.90
20158;DHT22;10239;56.820;24.416;2023-10-13T16:28:03;11.30;99.90
20158;DHT22;10239;56.820;24.416;2023-10-13T16:30:31;11.30;99.90